sensor_id;sensor_type;location;lat;lon;timestamp;temperature;humidity
46440;DHT22;32138;50.966;6.968;2023-02-23T02:30:48;12.50;99.90
46440;DHT22;32138;50.966;6.968;2023-02-23T03:13:05;12.30;99.90
46440;DHT22;32138;50.966;6.968;2023-02-23T03:14:49;12.30;99.90
46440;DHT22;32138;50.966;6.968;2023-02-23T03:20:25;12.30;99.90
46440;DHT22;32138;50.966;6.968;2023-02-23T03:25:41;12.30;99.90
46440;DHT22;32138;50.966;6.968;2023-02-23T03:27:19;12.40;99.90
46440;DHT22;32138;50.966;6.968;2023-02-23T03:29:00;12.40;99.90
46440;DHT22;32138;50.966;6.968;2023-02-23T03:30:34;12.40;99.90
46440;DHT22;32138;50.966;6.968;2023-02-23T03:33:59;12.50;99.90
46440;DHT22;32138;50.966;6.968;2023-02-23T03:38:34;12.50;99.90
46440;DHT22;32138;50.966;6.968;2023-02-23T03:40:01;12.50;99.90
46440;DHT22;32138;50.966;6.968;2023-02-23T03:41:25;12.50;99.90
46440;DHT22;32138;50.966;6.968;2023-02-23T03:42:48;12.40;99.90
46440;DHT22;32138;50.966;6.968;2023-02-23T03:44:14;12.30;99.90
46440;DHT22;32138;50.966;6.968;2023-02-23T09:16:41;12.20;99.90
46440;DHT22;32138;50.966;6.968;2023-02-23T09:17:44;11.80;99.90
46440;DHT22;32138;50.966;6.968;2023-02-23T09:18:46;11.80;99.90
46440;DHT22;32138;50.966;6.968;2023-02-23T09:19:47;11.80;99.90
46440;DHT22;32138;50.966;6.968;2023-02-23T09:21:54;11.80;99.90
46440;DHT22;32138;50.966;6.968;2023-02-23T09:22:55;11.80;99.90
46440;DHT22;32138;50.966;6.968;2023-02-23T09:23:56;11.80;99.90
46440;DHT22;32138;50.966;6.968;2023-02-23T09:24:57;11.80;99.90
46440;DHT22;32138;50.966;6.968;2023-02-23T09:26:03;11.80;99.90
46440;DHT22;32138;50.966;6.968;2023-02-23T09:29:14;11.80;99.90
46440;DHT22;32138;50.966;6.968;2023-02-23T09:30:16;11.80;99.90
46440;DHT22;32138;50.966;6.968;2023-02-23T09:31:21;11.90;99.90
46440;DHT22;32138;50.966;6.968;2023-02-23T09:32:22;11.90;99.90
46440;DHT22;32138;50.966;6.968;2023-02-23T09:33:23;11.90;99.90
46440;DHT22;32138;50.966;6.968;2023-02-23T09:34:25;11.90;99.90
46440;DHT22;32138;50.966;6.968;2023-02-23T09:35:30;11.90;99.90
46440;DHT22;32138;50.966;6.968;2023-02-23T09:36:31;11.90;99.90
46440;DHT22;32138;50.966;6.968;2023-02-23T09:37:32;11.90;99.90
46440;DHT22;32138;50.966;6.968;2023-02-23T09:38:33;11.90;99.90
46440;DHT22;32138;50.966;6.968;2023-02-23T09:39:34;11.80;99.90
46440;DHT22;32138;50.966;6.968;2023-02-23T09:40:52;11.80;99.90
46440;DHT22;32138;50.966;6.968;2023-02-23T09:49:10;11.90;99.90
46440;DHT22;32138;50.966;6.968;2023-02-23T09:53:41;11.90;99.90
46440;DHT22;32138;50.966;6.968;2023-02-23T09:54:48;11.90;99.90
46440;DHT22;32138;50.966;6.968;2023-02-23T09:55:51;11.90;99.90
46440;DHT22;32138;50.966;6.968;2023-02-23T09:56:53;11.90;99.90
46440;DHT22;32138;50.966;6.968;2023-02-23T09:58:04;11.90;99.90
46440;DHT22;32138;50.966;6.968;2023-02-23T09:59:14;11.90;99.90
46440;DHT22;32138;50.966;6.968;2023-02-23T10:00:23;11.90;99.90
46440;DHT22;32138;50.966;6.968;2023-02-23T10:05:42;11.90;99.90
46440;DHT22;32138;50.966;6.968;2023-02-23T10:06:53;11.90;99.90
46440;DHT22;32138;50.966;6.968;2023-02-23T10:08:01;11.90;99.90
46440;DHT22;32138;50.966;6.968;2023-02-23T10:10:58;11.90;99.90
46440;DHT22;32138;50.966;6.968;2023-02-23T10:12:16;11.80;99.90
46440;DHT22;32138;50.966;6.968;2023-02-23T10:15:13;11.80;99.90
46440;DHT22;32138;50.966;6.968;2023-02-23T10:18:11;11.80;99.90
46440;DHT22;32138;50.966;6.968;2023-02-23T10:20:39;11.80;99.90
46440;DHT22;32138;50.966;6.968;2023-02-23T10:21:55;11.80;99.90
46440;DHT22;32138;50.966;6.968;2023-02-23T10:23:03;11.80;99.90
46440;DHT22;32138;50.966;6.968;2023-02-23T10:24:20;11.80;99.90
46440;DHT22;32138;50.966;6.968;2023-02-23T10:25:27;11.80;99.90
46440;DHT22;32138;50.966;6.968;2023-02-23T10:26:59;11.90;99.90
46440;DHT22;32138;50.966;6.968;2023-02-23T10:28:02;11.90;99.90
46440;DHT22;32138;50.966;6.968;2023-02-23T10:29:15;11.90;99.90
46440;DHT22;32138;50.966;6.968;2023-02-23T10:30:24;11.90;99.90
46440;DHT22;32138;50.966;6.968;2023-02-23T10:31:44;11.90;99.90
46440;DHT22;32138;50.966;6.968;2023-02-23T10:33:13;12.00;99.90
46440;DHT22;32138;50.966;6.968;2023-02-23T10:34:16;11.90;99.90
46440;DHT22;32138;50.966;6.968;2023-02-23T10:35:19;11.80;99.90
46440;DHT22;32138;50.966;6.968;2023-02-23T10:36:34;11.80;99.90
46440;DHT22;32138;50.966;6.968;2023-02-23T10:38:00;11.90;99.90
46440;DHT22;32138;50.966;6.968;2023-02-23T10:39:04;11.90;99.90
46440;DHT22;32138;50.966;6.968;2023-02-23T10:40:14;11.90;99.90
46440;DHT22;32138;50.966;6.968;2023-02-23T10:41:17;11.80;99.90
46440;DHT22;32138;50.966;6.968;2023-02-23T10:42:26;11.90;99.90
46440;DHT22;32138;50.966;6.968;2023-02-23T10:43:32;11.90;99.90
46440;DHT22;32138;50.966;6.968;2023-02-23T10:44:33;11.90;99.90
46440;DHT22;32138;50.966;6.968;2023-02-23T10:45:57;11.90;99.90
46440;DHT22;32138;50.966;6.968;2023-02-23T10:47:00;11.90;99.90
46440;DHT22;32138;50.966;6.968;2023-02-23T10:48:15;11.90;99.90
46440;DHT22;32138;50.966;6.968;2023-02-23T10:49:23;11.90;99.90
46440;DHT22;32138;50.966;6.968;2023-02-23T10:50:30;11.90;99.90
46440;DHT22;32138;50.966;6.968;2023-02-23T10:51:35;11.90;99.90
46440;DHT22;32138;50.966;6.968;2023-02-23T10:52:45;11.90;99.90
46440;DHT22;32138;50.966;6.968;2023-02-23T10:53:48;11.80;99.90
46440;DHT22;32138;50.966;6.968;2023-02-23T10:54:50;11.80;99.90
46440;DHT22;32138;50.966;6.968;2023-02-23T10:57:06;11.80;99.90
46440;DHT22;32138;50.966;6.968;2023-02-23T10:58:15;11.90;99.90
46440;DHT22;32138;50.966;6.968;2023-02-23T10:59:18;11.90;99.90
46440;DHT22;32138;50.966;6.968;2023-02-23T11:00:21;11.90;99.90
46440;DHT22;32138;50.966;6.968;2023-02-23T11:01:41;11.90;99.90
46440;DHT22;32138;50.966;6.968;2023-02-23T11:02:46;11.90;99.90
46440;DHT22;32138;50.966;6.968;2023-02-23T11:03:48;11.90;99.90
46440;DHT22;32138;50.966;6.968;2023-02-23T11:04:53;11.90;99.90
46440;DHT22;32138;50.966;6.968;2023-02-23T11:05:56;12.00;99.90
46440;DHT22;32138;50.966;6.968;2023-02-23T11:07:15;12.00;99.90
46440;DHT22;32138;50.966;6.968;2023-02-23T11:08:35;12.00;99.90
46440;DHT22;32138;50.966;6.968;2023-02-23T11:09:37;11.90;99.90
46440;DHT22;32138;50.966;6.968;2023-02-23T11:10:40;12.00;99.90
46440;DHT22;32138;50.966;6.968;2023-02-23T11:11:55;11.90;99.90
46440;DHT22;32138;50.966;6.968;2023-02-23T11:12:57;12.00;99.90
46440;DHT22;32138;50.966;6.968;2023-02-23T11:13:58;11.90;99.90
46440;DHT22;32138;50.966;6.968;2023-02-23T11:16:25;11.90;99.90
46440;DHT22;32138;50.966;6.968;2023-02-23T11:18:33;11.90;99.90
46440;DHT22;32138;50.966;6.968;2023-02-23T11:19:35;11.80;99.90
46440;DHT22;32138;50.966;6.968;2023-02-23T11:20:39;11.90;99.90
46440;DHT22;32138;50.966;6.968;2023-02-23T11:21:50;11.90;99.90
46440;DHT22;32138;50.966;6.968;2023-02-23T11:22:52;11.90;99.90
46440;DHT22;32138;50.966;6.968;2023-02-23T11:23:56;11.90;99.90
46440;DHT22;32138;50.966;6.968;2023-02-23T11:24:59;11.90;99.90
46440;DHT22;32138;50.966;6.968;2023-02-23T11:26:05;11.90;99.90
46440;DHT22;32138;50.966;6.968;2023-02-23T11:27:24;11.90;99.90
46440;DHT22;32138;50.966;6.968;2023-02-23T11:28:33;11.90;99.90
46440;DHT22;32138;50.966;6.968;2023-02-23T11:29:41;11.90;99.90
46440;DHT22;32138;50.966;6.968;2023-02-23T11:30:43;11.90;99.90
46440;DHT22;32138;50.966;6.968;2023-02-23T11:31:55;11.90;99.90
46440;DHT22;32138;50.966;6.968;2023-02-23T11:32:59;11.90;99.90
46440;DHT22;32138;50.966;6.968;2023-02-23T11:34:20;11.80;99.90
46440;DHT22;32138;50.966;6.968;2023-02-23T11:36:29;11.80;99.90
46440;DHT22;32138;50.966;6.968;2023-02-23T11:37:34;11.80;99.90
46440;DHT22;32138;50.966;6.968;2023-02-23T11:38:35;11.80;99.90
46440;DHT22;32138;50.966;6.968;2023-02-23T11:39:36;11.90;99.90
46440;DHT22;32138;50.966;6.968;2023-02-23T11:40:59;11.90;99.90
46440;DHT22;32138;50.966;6.968;2023-02-23T11:42:14;11.90;99.90
46440;DHT22;32138;50.966;6.968;2023-02-23T11:43:17;11.90;99.90
46440;DHT22;32138;50.966;6.968;2023-02-23T11:44:20;11.90;99.90
46440;DHT22;32138;50.966;6.968;2023-02-23T11:45:24;11.80;99.90
46440;DHT22;32138;50.966;6.968;2023-02-23T11:46:29;11.90;99.90
46440;DHT22;32138;50.966;6.968;2023-02-23T11:47:33;11.90;99.90
46440;DHT22;32138;50.966;6.968;2023-02-23T11:49:21;11.90;99.90
46440;DHT22;32138;50.966;6.968;2023-02-23T11:51:34;11.90;99.90
46440;DHT22;32138;50.966;6.968;2023-02-23T11:52:36;11.90;99.90
46440;DHT22;32138;50.966;6.968;2023-02-23T11:53:44;11.90;99.90
46440;DHT22;32138;50.966;6.968;2023-02-23T11:54:57;11.90;99.90
46440;DHT22;32138;50.966;6.968;2023-02-23T11:56:01;11.90;99.90
46440;DHT22;32138;50.966;6.968;2023-02-23T11:57:22;11.80;99.90
46440;DHT22;32138;50.966;6.968;2023-02-23T11:58:32;11.80;99.90
46440;DHT22;32138;50.966;6.968;2023-02-23T11:59:37;11.70;99.90
46440;DHT22;32138;50.966;6.968;2023-02-23T12:00:39;11.70;99.90
46440;DHT22;32138;50.966;6.968;2023-02-23T12:01:49;11.60;99.90
46440;DHT22;32138;50.966;6.968;2023-02-23T12:02:56;11.80;99.90
46440;DHT22;32138;50.966;6.968;2023-02-23T12:03:58;11.80;99.90
46440;DHT22;32138;50.966;6.968;2023-02-23T12:05:08;11.80;99.90
46440;DHT22;32138;50.966;6.968;2023-02-23T12:06:30;11.80;99.90
46440;DHT22;32138;50.966;6.968;2023-02-23T12:09:15;11.80;99.90
46440;DHT22;32138;50.966;6.968;2023-02-23T12:10:40;11.70;99.90
46440;DHT22;32138;50.966;6.968;2023-02-23T12:11:48;11.70;99.90
46440;DHT22;32138;50.966;6.968;2023-02-23T12:14:26;11.70;99.90
46440;DHT22;32138;50.966;6.968;2023-02-23T12:15:56;11.70;99.90
46440;DHT22;32138;50.966;6.968;2023-02-23T12:17:07;11.60;99.90
46440;DHT22;32138;50.966;6.968;2023-02-23T12:20:10;11.60;99.90
46440;DHT22;32138;50.966;6.968;2023-02-23T12:23:14;11.70;99.90
46440;DHT22;32138;50.966;6.968;2023-02-23T12:25:56;11.60;99.90
46440;DHT22;32138;50.966;6.968;2023-02-23T12:28:34;11.70;99.90
46440;DHT22;32138;50.966;6.968;2023-02-23T12:29:52;11.70;99.90
46440;DHT22;32138;50.966;6.968;2023-02-23T12:31:05;11.70;99.90
46440;DHT22;32138;50.966;6.968;2023-02-23T12:32:27;11.50;99.90
46440;DHT22;32138;50.966;6.968;2023-02-23T12:33:39;11.60;99.90
46440;DHT22;32138;50.966;6.968;2023-02-23T12:34:48;11.70;99.90
46440;DHT22;32138;50.966;6.968;2023-02-23T12:35:53;11.60;99.90
46440;DHT22;32138;50.966;6.968;2023-02-23T12:37:23;11.60;99.90
46440;DHT22;32138;50.966;6.968;2023-02-23T12:39:43;11.70;99.90
46440;DHT22;32138;50.966;6.968;2023-02-23T12:40:47;11.60;99.90
46440;DHT22;32138;50.966;6.968;2023-02-23T12:44:59;11.60;99.90
46440;DHT22;32138;50.966;6.968;2023-02-23T12:46:13;11.60;99.90
46440;DHT22;32138;50.966;6.968;2023-02-23T12:47:59;11.60;99.90
46440;DHT22;32138;50.966;6.968;2023-02-23T12:49:26;11.70;99.90
46440;DHT22;32138;50.966;6.968;2023-02-23T12:50:49;11.70;99.90
46440;DHT22;32138;50.966;6.968;2023-02-23T12:51:57;11.70;99.90
46440;DHT22;32138;50.966;6.968;2023-02-23T12:53:06;11.70;99.90
46440;DHT22;32138;50.966;6.968;2023-02-23T12:54:14;11.60;99.90
46440;DHT22;32138;50.966;6.968;2023-02-23T12:55:24;11.70;99.90
46440;DHT22;32138;50.966;6.968;2023-02-23T12:56:46;11.80;99.90
46440;DHT22;32138;50.966;6.968;2023-02-23T12:58:07;11.70;99.90
46440;DHT22;32138;50.966;6.968;2023-02-23T13:01:07;11.70;99.90
46440;DHT22;32138;50.966;6.968;2023-02-23T13:02:20;11.60;99.90
46440;DHT22;32138;50.966;6.968;2023-02-23T13:04:50;11.60;99.90
46440;DHT22;32138;50.966;6.968;2023-02-23T13:06:19;11.60;99.90
46440;DHT22;32138;50.966;6.968;2023-02-23T13:08:57;11.60;99.90
46440;DHT22;32138;50.966;6.968;2023-02-23T13:15:20;11.70;99.90
46440;DHT22;32138;50.966;6.968;2023-02-23T13:16:29;11.70;99.90
46440;DHT22;32138;50.966;6.968;2023-02-23T13:19:40;11.70;99.90
46440;DHT22;32138;50.966;6.968;2023-02-23T13:24:03;11.60;99.90
46440;DHT22;32138;50.966;6.968;2023-02-23T13:27:00;11.60;99.90
46440;DHT22;32138;50.966;6.968;2023-02-23T13:28:07;11.70;99.90
46440;DHT22;32138;50.966;6.968;2023-02-23T13:30:35;11.70;99.90
46440;DHT22;32138;50.966;6.968;2023-02-23T13:31:38;11.60;99.90
46440;DHT22;32138;50.966;6.968;2023-02-23T13:32:40;11.70;99.90
46440;DHT22;32138;50.966;6.968;2023-02-23T13:33:41;11.70;99.90
46440;DHT22;32138;50.966;6.968;2023-02-23T13:35:52;11.70;99.90
46440;DHT22;32138;50.966;6.968;2023-02-23T13:36:53;11.70;99.90
46440;DHT22;32138;50.966;6.968;2023-02-23T13:38:18;11.70;99.90
46440;DHT22;32138;50.966;6.968;2023-02-23T13:40:43;11.60;99.90
46440;DHT22;32138;50.966;6.968;2023-02-23T13:43:21;11.60;99.90
46440;DHT22;32138;50.966;6.968;2023-02-23T13:44:43;11.50;99.90
46440;DHT22;32138;50.966;6.968;2023-02-23T13:47:52;11.50;99.90
46440;DHT22;32138;50.966;6.968;2023-02-23T13:50:42;11.50;99.90
46440;DHT22;32138;50.966;6.968;2023-02-23T13:51:56;11.50;99.90
46440;DHT22;32138;50.966;6.968;2023-02-23T13:53:04;11.50;99.90
46440;DHT22;32138;50.966;6.968;2023-02-23T13:54:21;11.60;99.90
46440;DHT22;32138;50.966;6.968;2023-02-23T13:55:45;11.60;99.90
46440;DHT22;32138;50.966;6.968;2023-02-23T13:56:53;11.60;99.90
46440;DHT22;32138;50.966;6.968;2023-02-23T13:58:13;11.60;99.90
46440;DHT22;32138;50.966;6.968;2023-02-23T13:59:18;11.60;99.90
46440;DHT22;32138;50.966;6.968;2023-02-23T14:00:22;11.50;99.90
46440;DHT22;32138;50.966;6.968;2023-02-23T14:01:32;11.60;99.90
46440;DHT22;32138;50.966;6.968;2023-02-23T14:02:40;11.50;99.90
46440;DHT22;32138;50.966;6.968;2023-02-23T14:03:45;11.50;99.90
46440;DHT22;32138;50.966;6.968;2023-02-23T14:04:47;11.50;99.90
46440;DHT22;32138;50.966;6.968;2023-02-23T14:05:54;11.50;99.90
46440;DHT22;32138;50.966;6.968;2023-02-23T14:08:31;11.60;99.90
46440;DHT22;32138;50.966;6.968;2023-02-23T14:09:42;11.60;99.90
46440;DHT22;32138;50.966;6.968;2023-02-23T14:10:47;11.50;99.90
46440;DHT22;32138;50.966;6.968;2023-02-23T14:11:49;11.50;99.90
46440;DHT22;32138;50.966;6.968;2023-02-23T14:16:34;11.60;99.90
46440;DHT22;32138;50.966;6.968;2023-02-23T14:24:22;11.60;99.90
46440;DHT22;32138;50.966;6.968;2023-02-23T14:26:41;11.40;99.90
46440;DHT22;32138;50.966;6.968;2023-02-23T14:27:44;11.50;99.90
46440;DHT22;32138;50.966;6.968;2023-02-23T14:29:09;11.60;99.90
46440;DHT22;32138;50.966;6.968;2023-02-23T14:30:24;11.60;99.90
46440;DHT22;32138;50.966;6.968;2023-02-23T14:31:29;11.60;99.90
46440;DHT22;32138;50.966;6.968;2023-02-23T14:32:34;11.50;99.90
46440;DHT22;32138;50.966;6.968;2023-02-23T14:34:44;11.50;99.90
46440;DHT22;32138;50.966;6.968;2023-02-23T14:35:56;11.50;99.90
46440;DHT22;32138;50.966;6.968;2023-02-23T14:37:12;11.60;99.90
46440;DHT22;32138;50.966;6.968;2023-02-23T14:38:31;11.70;99.90
46440;DHT22;32138;50.966;6.968;2023-02-23T14:39:37;11.70;99.90
46440;DHT22;32138;50.966;6.968;2023-02-23T14:41:01;11.70;99.90
46440;DHT22;32138;50.966;6.968;2023-02-23T14:42:05;11.70;99.90
46440;DHT22;32138;50.966;6.968;2023-02-23T14:44:46;11.70;99.90
46440;DHT22;32138;50.966;6.968;2023-02-23T14:45:53;11.60;99.90
46440;DHT22;32138;50.966;6.968;2023-02-23T14:47:07;11.60;99.90
46440;DHT22;32138;50.966;6.968;2023-02-23T14:48:12;11.70;99.90
46440;DHT22;32138;50.966;6.968;2023-02-23T14:49:19;11.60;99.90
46440;DHT22;32138;50.966;6.968;2023-02-23T14:50:33;11.70;99.90
46440;DHT22;32138;50.966;6.968;2023-02-23T14:51:44;11.70;99.90
46440;DHT22;32138;50.966;6.968;2023-02-23T14:52:49;11.70;99.90
46440;DHT22;32138;50.966;6.968;2023-02-23T14:53:51;11.80;99.90
46440;DHT22;32138;50.966;6.968;2023-02-23T14:56:19;11.80;99.90
46440;DHT22;32138;50.966;6.968;2023-02-23T14:57:23;11.80;99.90
46440;DHT22;32138;50.966;6.968;2023-02-23T14:58:29;11.70;99.90
46440;DHT22;32138;50.966;6.968;2023-02-23T14:59:40;11.70;99.90
46440;DHT22;32138;50.966;6.968;2023-02-23T15:00:42;11.70;99.90
46440;DHT22;32138;50.966;6.968;2023-02-23T15:01:43;11.60;99.90
46440;DHT22;32138;50.966;6.968;2023-02-23T15:02:59;11.70;99.90
46440;DHT22;32138;50.966;6.968;2023-02-23T15:04:15;11.80;99.90
46440;DHT22;32138;50.966;6.968;2023-02-23T15:05:18;11.70;99.90
46440;DHT22;32138;50.966;6.968;2023-02-23T15:06:21;11.70;99.90
46440;DHT22;32138;50.966;6.968;2023-02-23T15:07:34;11.70;99.90
46440;DHT22;32138;50.966;6.968;2023-02-23T15:08:39;11.70;99.90
46440;DHT22;32138;50.966;6.968;2023-02-23T15:09:45;11.60;99.90
46440;DHT22;32138;50.966;6.968;2023-02-23T15:10:49;11.60;99.90
46440;DHT22;32138;50.966;6.968;2023-02-23T15:12:14;11.60;99.90
46440;DHT22;32138;50.966;6.968;2023-02-23T15:13:35;11.60;99.90
46440;DHT22;32138;50.966;6.968;2023-02-23T15:14:37;11.70;99.90
46440;DHT22;32138;50.966;6.968;2023-02-23T15:15:43;11.70;99.90
46440;DHT22;32138;50.966;6.968;2023-02-23T15:16:45;11.70;99.90
46440;DHT22;32138;50.966;6.968;2023-02-23T15:17:47;11.60;99.90
46440;DHT22;32138;50.966;6.968;2023-02-23T15:18:49;11.60;99.90
46440;DHT22;32138;50.966;6.968;2023-02-23T15:19:57;11.60;99.90
46440;DHT22;32138;50.966;6.968;2023-02-23T15:21:08;11.70;99.90
46440;DHT22;32138;50.966;6.968;2023-02-23T15:22:22;11.70;99.90
46440;DHT22;32138;50.966;6.968;2023-02-23T15:23:24;11.70;99.90
46440;DHT22;32138;50.966;6.968;2023-02-23T15:24:29;11.60;99.90
46440;DHT22;32138;50.966;6.968;2023-02-23T15:25:37;11.60;99.90
46440;DHT22;32138;50.966;6.968;2023-02-23T15:26:40;11.60;99.90
46440;DHT22;32138;50.966;6.968;2023-02-23T15:27:44;11.70;99.90
46440;DHT22;32138;50.966;6.968;2023-02-23T15:28:45;11.70;99.90
46440;DHT22;32138;50.966;6.968;2023-02-23T15:29:46;11.70;99.90
46440;DHT22;32138;50.966;6.968;2023-02-23T15:30:48;11.70;99.90
46440;DHT22;32138;50.966;6.968;2023-02-23T15:31:54;11.70;99.90
46440;DHT22;32138;50.966;6.968;2023-02-23T15:33:05;11.70;99.90
46440;DHT22;32138;50.966;6.968;2023-02-23T15:34:10;11.80;99.90
46440;DHT22;32138;50.966;6.968;2023-02-23T15:35:11;11.70;99.90
46440;DHT22;32138;50.966;6.968;2023-02-23T15:36:18;11.80;99.90
46440;DHT22;32138;50.966;6.968;2023-02-23T15:37:41;11.80;99.90
46440;DHT22;32138;50.966;6.968;2023-02-23T15:38:48;11.70;99.90
46440;DHT22;32138;50.966;6.968;2023-02-23T15:39:56;11.70;99.90
46440;DHT22;32138;50.966;6.968;2023-02-23T15:41:06;11.70;99.90
46440;DHT22;32138;50.966;6.968;2023-02-23T15:42:12;11.70;99.90
46440;DHT22;32138;50.966;6.968;2023-02-23T15:43:14;11.60;99.90
46440;DHT22;32138;50.966;6.968;2023-02-23T15:44:23;11.70;99.90
46440;DHT22;32138;50.966;6.968;2023-02-23T15:45:49;11.70;99.90
46440;DHT22;32138;50.966;6.968;2023-02-23T15:46:58;11.80;99.90
46440;DHT22;32138;50.966;6.968;2023-02-23T15:48:04;11.80;99.90
46440;DHT22;32138;50.966;6.968;2023-02-23T15:49:09;11.80;99.90
46440;DHT22;32138;50.966;6.968;2023-02-23T15:50:18;11.70;99.90
46440;DHT22;32138;50.966;6.968;2023-02-23T15:51:40;11.60;99.90
46440;DHT22;32138;50.966;6.968;2023-02-23T15:52:50;11.60;99.90
46440;DHT22;32138;50.966;6.968;2023-02-23T15:53:53;11.70;99.90
46440;DHT22;32138;50.966;6.968;2023-02-23T15:55:02;11.70;99.90
46440;DHT22;32138;50.966;6.968;2023-02-23T15:56:15;11.70;99.90
46440;DHT22;32138;50.966;6.968;2023-02-23T15:57:30;11.60;99.90
46440;DHT22;32138;50.966;6.968;2023-02-23T15:58:37;11.60;99.90
46440;DHT22;32138;50.966;6.968;2023-02-23T15:59:39;11.60;99.90
46440;DHT22;32138;50.966;6.968;2023-02-23T16:00:41;11.60;99.90
46440;DHT22;32138;50.966;6.968;2023-02-23T16:01:44;11.70;99.90
46440;DHT22;32138;50.966;6.968;2023-02-23T16:02:47;11.60;99.90
46440;DHT22;32138;50.966;6.968;2023-02-23T16:04:06;11.60;99.90
46440;DHT22;32138;50.966;6.968;2023-02-23T16:05:19;11.60;99.90
46440;DHT22;32138;50.966;6.968;2023-02-23T16:06:36;11.50;99.90
46440;DHT22;32138;50.966;6.968;2023-02-23T16:07:40;11.60;99.90
46440;DHT22;32138;50.966;6.968;2023-02-23T16:08:56;11.60;99.90
46440;DHT22;32138;50.966;6.968;2023-02-23T16:10:22;11.60;99.90
46440;DHT22;32138;50.966;6.968;2023-02-23T16:11:25;11.50;99.90
46440;DHT22;32138;50.966;6.968;2023-02-23T16:12:31;11.60;99.90
46440;DHT22;32138;50.966;6.968;2023-02-23T16:13:34;11.70;99.90
46440;DHT22;32138;50.966;6.968;2023-02-23T16:14:45;11.70;99.90
46440;DHT22;32138;50.966;6.968;2023-02-23T16:15:49;11.70;99.90
46440;DHT22;32138;50.966;6.968;2023-02-23T16:16:52;11.70;99.90
46440;DHT22;32138;50.966;6.968;2023-02-23T16:18:01;11.70;99.90
46440;DHT22;32138;50.966;6.968;2023-02-23T16:19:03;11.70;99.90
46440;DHT22;32138;50.966;6.968;2023-02-23T16:20:21;11.60;99.90
46440;DHT22;32138;50.966;6.968;2023-02-23T16:21:29;11.50;99.90
46440;DHT22;32138;50.966;6.968;2023-02-23T16:22:31;11.60;99.90
46440;DHT22;32138;50.966;6.968;2023-02-23T16:23:39;11.60;99.90
46440;DHT22;32138;50.966;6.968;2023-02-23T16:24:40;11.60;99.90
46440;DHT22;32138;50.966;6.968;2023-02-23T16:25:41;11.60;99.90
46440;DHT22;32138;50.966;6.968;2023-02-23T16:26:54;11.70;99.90
46440;DHT22;32138;50.966;6.968;2023-02-23T16:28:11;11.70;99.90
46440;DHT22;32138;50.966;6.968;2023-02-23T16:29:30;11.60;99.90
46440;DHT22;32138;50.966;6.968;2023-02-23T16:30:39;11.50;99.90
46440;DHT22;32138;50.966;6.968;2023-02-23T16:31:47;11.50;99.90
46440;DHT22;32138;50.966;6.968;2023-02-23T16:33:10;11.50;99.90
46440;DHT22;32138;50.966;6.968;2023-02-23T16:34:28;11.50;99.90
46440;DHT22;32138;50.966;6.968;2023-02-23T16:35:42;11.60;99.90
46440;DHT22;32138;50.966;6.968;2023-02-23T16:36:55;11.50;99.90
46440;DHT22;32138;50.966;6.968;2023-02-23T16:38:00;11.50;99.90
46440;DHT22;32138;50.966;6.968;2023-02-23T16:39:05;11.50;99.90
46440;DHT22;32138;50.966;6.968;2023-02-23T16:40:14;11.60;99.90
46440;DHT22;32138;50.966;6.968;2023-02-23T16:41:18;11.60;99.90
46440;DHT22;32138;50.966;6.968;2023-02-23T16:42:24;11.50;99.90
46440;DHT22;32138;50.966;6.968;2023-02-23T16:43:28;11.50;99.90
46440;DHT22;32138;50.966;6.968;2023-02-23T16:44:30;11.50;99.90
46440;DHT22;32138;50.966;6.968;2023-02-23T16:45:32;11.50;99.90
46440;DHT22;32138;50.966;6.968;2023-02-23T16:47:55;11.60;99.90
46440;DHT22;32138;50.966;6.968;2023-02-23T16:49:01;11.50;99.90
46440;DHT22;32138;50.966;6.968;2023-02-23T16:50:17;11.50;99.90
46440;DHT22;32138;50.966;6.968;2023-02-23T16:51:21;11.50;99.90
46440;DHT22;32138;50.966;6.968;2023-02-23T16:52:24;11.50;99.90
46440;DHT22;32138;50.966;6.968;2023-02-23T16:53:26;11.50;99.90
46440;DHT22;32138;50.966;6.968;2023-02-23T16:54:29;11.40;99.90
46440;DHT22;32138;50.966;6.968;2023-02-23T16:55:35;11.50;99.90
46440;DHT22;32138;50.966;6.968;2023-02-23T16:56:39;11.50;99.90
46440;DHT22;32138;50.966;6.968;2023-02-23T16:57:40;11.50;99.90
46440;DHT22;32138;50.966;6.968;2023-02-23T16:58:45;11.50;99.90
46440;DHT22;32138;50.966;6.968;2023-02-23T16:59:48;11.40;99.90
46440;DHT22;32138;50.966;6.968;2023-02-23T17:00:50;11.50;99.90
46440;DHT22;32138;50.966;6.968;2023-02-23T17:01:52;11.40;99.90
46440;DHT22;32138;50.966;6.968;2023-02-23T17:02:54;11.40;99.90
46440;DHT22;32138;50.966;6.968;2023-02-23T17:03:56;11.50;99.90
46440;DHT22;32138;50.966;6.968;2023-02-23T17:04:58;11.50;99.90
46440;DHT22;32138;50.966;6.968;2023-02-23T17:05:59;11.40;99.90
46440;DHT22;32138;50.966;6.968;2023-02-23T17:07:02;11.40;99.90
46440;DHT22;32138;50.966;6.968;2023-02-23T17:08:03;11.50;99.90
46440;DHT22;32138;50.966;6.968;2023-02-23T17:09:04;11.50;99.90
46440;DHT22;32138;50.966;6.968;2023-02-23T17:10:07;11.50;99.90
46440;DHT22;32138;50.966;6.968;2023-02-23T17:11:08;11.60;99.90
46440;DHT22;32138;50.966;6.968;2023-02-23T17:12:14;11.70;99.90
46440;DHT22;32138;50.966;6.968;2023-02-23T17:13:23;11.80;99.90
46440;DHT22;32138;50.966;6.968;2023-02-23T17:14:26;11.80;99.90
46440;DHT22;32138;50.966;6.968;2023-02-23T17:15:36;11.80;99.90
46440;DHT22;32138;50.966;6.968;2023-02-23T17:16:40;11.70;99.90
46440;DHT22;32138;50.966;6.968;2023-02-23T17:17:40;11.70;99.90
46440;DHT22;32138;50.966;6.968;2023-02-23T17:18:41;11.60;99.90
46440;DHT22;32138;50.966;6.968;2023-02-23T17:19:44;11.70;99.90
46440;DHT22;32138;50.966;6.968;2023-02-23T17:20:45;11.70;99.90
46440;DHT22;32138;50.966;6.968;2023-02-23T17:21:46;11.80;99.90
46440;DHT22;32138;50.966;6.968;2023-02-23T17:22:48;11.80;99.90
46440;DHT22;32138;50.966;6.968;2023-02-23T17:23:50;11.80;99.90
46440;DHT22;32138;50.966;6.968;2023-02-23T17:24:51;11.70;99.90
46440;DHT22;32138;50.966;6.968;2023-02-23T17:25:53;11.80;99.90
46440;DHT22;32138;50.966;6.968;2023-02-23T17:27:00;11.80;99.90
46440;DHT22;32138;50.966;6.968;2023-02-23T17:28:01;11.80;99.90
46440;DHT22;32138;50.966;6.968;2023-02-23T17:29:02;11.80;99.90
46440;DHT22;32138;50.966;6.968;2023-02-23T17:30:04;11.90;99.90
46440;DHT22;32138;50.966;6.968;2023-02-23T17:31:06;11.90;99.90
46440;DHT22;32138;50.966;6.968;2023-02-23T17:32:07;11.90;99.90
46440;DHT22;32138;50.966;6.968;2023-02-23T17:33:08;11.90;99.90
46440;DHT22;32138;50.966;6.968;2023-02-23T17:34:10;11.80;99.90
46440;DHT22;32138;50.966;6.968;2023-02-23T17:35:11;11.80;99.90
46440;DHT22;32138;50.966;6.968;2023-02-23T17:36:14;11.70;99.90
46440;DHT22;32138;50.966;6.968;2023-02-23T17:37:16;11.70;99.90
46440;DHT22;32138;50.966;6.968;2023-02-23T17:38:19;11.70;99.90
46440;DHT22;32138;50.966;6.968;2023-02-23T17:39:20;11.70;99.90